Time;durP1;ratioP1;P1;durP2;ratioP2;P2;SDS_P1;SDS_P2;PMS_P1;PMS_P2;Temp;Humidity;BMP_temperature;BMP_pressure;BME280_temperature;BME280_humidity;BME280_pressure;Samples;Min_cycle;Max_cycle;Signal;HPM_P1;HPM_P2
2023/10/17 00:02:03;;;;;;;5.28;2.20;;;8.60;99.90;;;;;;5066224;28;20481;-53
2023/10/17 00:04:32;;;;;;;4.00;2.72;;;8.60;99.90;;;;;;5073392;28;20021;-53
2023/10/17 00:06:58;;;;;;;3.88;2.40;;;8.60;99.90;;;;;;5073560;28;20055;-53
2023/10/17 00:09:25;;;;;;;4.47;1.83;;;8.60;99.90;;;;;;5073120;28;20472;-52
2023/10/17 00:14:23;;;;;;;5.00;2.42;;;8.50;99.90;;;;;;5073408;28;20044;-55
2023/10/17 00:16:50;;;;;;;8.15;2.10;;;8.50;99.90;;;;;;5072678;28;20494;-51
2023/10/17 00:19:18;;;;;;;3.05;2.00;;;8.60;99.90;;;;;;5073248;28;20384;-53
2023/10/17 00:21:43;;;;;;;3.55;2.38;;;8.50;99.90;;;;;;5073355;28;20126;-54
2023/10/17 00:24:09;;;;;;;4.38;1.98;;;8.50;99.90;;;;;;5073193;28;20021;-53
2023/10/17 00:26:37;;;;;;;3.95;2.30;;;8.50;99.90;;;;;;5072298;28;20020;-53
2023/10/17 00:29:05;;;;;;;6.47;2.58;;;8.50;99.90;;;;;;5072438;28;20024;-53
2023/10/17 00:31:36;;;;;;;2.92;2.05;;;8.50;99.90;;;;;;5072499;28;20393;-53
2023/10/17 00:34:12;;;;;;;4.78;2.05;;;8.50;99.90;;;;;;5054901;28;20036;-54
2023/10/17 00:36:48;;;;;;;6.25;2.63;;;8.50;99.90;;;;;;5072859;28;20075;-54
2023/10/17 00:39:39;;;;;;;4.82;2.10;;;8.50;99.90;;;;;;5072501;28;20116;-46
2023/10/17 00:44:40;;;;;;;7.68;2.35;;;8.50;99.90;;;;;;5072942;28;20094;-53
2023/10/17 00:47:42;;;;;;;5.95;2.38;;;8.50;99.90;;;;;;5072390;28;20025;-54
2023/10/17 00:50:07;;;;;;;2.35;2.08;;;8.50;99.90;;;;;;5069620;28;20127;-54
2023/10/17 00:52:34;;;;;;;2.13;1.77;;;8.50;99.90;;;;;;5054737;28;20085;-59
2023/10/17 00:55:02;;;;;;;3.42;2.33;;;8.50;99.90;;;;;;5072577;28;20033;-54
2023/10/17 00:57:29;;;;;;;4.40;2.13;;;8.50;99.90;;;;;;5072059;28;20055;-54
2023/10/17 00:59:56;;;;;;;8.27;2.70;;;8.50;99.90;;;;;;5072513;28;20079;-53
2023/10/17 01:02:24;;;;;;;7.50;3.13;;;8.50;99.90;;;;;;5071572;28;20035;-53
2023/10/17 01:04:59;;;;;;;6.18;2.42;;;8.40;99.90;;;;;;5072092;28;20021;-54
2023/10/17 01:07:31;;;;;;;2.85;2.13;;;8.40;99.90;;;;;;5071665;28;20645;-54
2023/10/17 01:10:10;;;;;;;4.00;2.03;;;8.30;99.90;;;;;;5071957;28;20071;-54
2023/10/17 01:12:41;;;;;;;2.63;2.00;;;8.30;99.90;;;;;;5056544;28;20107;-53
2023/10/17 01:15:07;;;;;;;5.95;2.28;;;8.40;99.90;;;;;;5054536;28;20515;-53
2023/10/17 01:17:35;;;;;;;5.70;2.00;;;8.40;99.90;;;;;;5072044;28;20020;-54
2023/10/17 01:20:14;;;;;;;3.05;1.85;;;8.50;99.90;;;;;;5072183;28;20111;-54
2023/10/17 01:22:42;;;;;;;5.22;2.42;;;8.50;99.90;;;;;;5072717;28;20477;-55
2023/10/17 01:25:19;;;;;;;5.03;2.20;;;8.50;99.90;;;;;;5072586;28;20032;-53
2023/10/17 01:27:44;;;;;;;1.80;1.02;;;8.50;99.90;;;;;;5072376;28;20060;-54
2023/10/17 01:30:11;;;;;;;3.53;2.05;;;8.50;99.90;;;;;;5072363;28;20083;-54
2023/10/17 01:32:36;;;;;;;2.42;1.83;;;8.50;99.90;;;;;;5071947;28;20025;-54
2023/10/17 01:35:02;;;;;;;5.95;1.63;;;8.50;99.90;;;;;;5072166;28;20393;-54
2023/10/17 01:37:28;;;;;;;6.70;1.90;;;8.50;99.90;;;;;;5071960;28;20032;-54
2023/10/17 01:39:53;;;;;;;2.90;2.28;;;8.50;99.90;;;;;;5075536;28;20040;-54
2023/10/17 01:42:20;;;;;;;2.05;1.65;;;8.50;99.90;;;;;;5075996;28;20497;-54
2023/10/17 01:44:45;;;;;;;5.45;1.90;;;8.50;99.90;;;;;;5076209;28;20031;-53
2023/10/17 01:47:11;;;;;;;3.58;2.08;;;8.50;99.90;;;;;;5075767;28;20029;-52
2023/10/17 01:49:36;;;;;;;8.73;1.98;;;8.50;99.90;;;;;;5074421;28;20039;-53
2023/10/17 01:52:03;;;;;;;7.07;2.10;;;8.50;99.90;;;;;;5075442;28;20465;-54
2023/10/17 01:54:29;;;;;;;5.65;2.03;;;8.50;99.90;;;;;;5075524;28;20366;-54
2023/10/17 01:57:05;;;;;;;3.05;1.70;;;8.50;99.90;;;;;;5075276;28;20028;-53
2023/10/17 01:59:34;;;;;;;3.72;1.88;;;8.50;99.90;;;;;;5059325;28;20389;-54
2023/10/17 02:02:03;;;;;;;2.22;2.03;;;8.50;99.90;;;;;;5075147;28;20027;-54
2023/10/17 02:04:29;;;;;;;1.92;1.70;;;8.50;99.90;;;;;;5075535;28;20025;-53
2023/10/17 02:06:55;;;;;;;3.65;1.95;;;8.50;99.90;;;;;;5075574;28;20028;-54
2023/10/17 02:09:24;;;;;;;1.77;1.60;;;8.50;99.90;;;;;;5075420;28;20943;-54
2023/10/17 02:11:52;;;;;;;3.75;1.77;;;8.50;99.90;;;;;;5075487;28;20373;-53
2023/10/17 02:14:18;;;;;;;3.75;1.73;;;8.50;99.90;;;;;;5075362;28;20028;-52
2023/10/17 02:16:44;;;;;;;2.53;1.70;;;8.50;99.90;;;;;;5075082;28;20024;-53
2023/10/17 02:19:13;;;;;;;3.92;2.15;;;8.50;99.90;;;;;;5075331;28;20021;-52
2023/10/17 02:21:39;;;;;;;2.03;1.58;;;8.50;99.90;;;;;;5075161;28;20024;-54
2023/10/17 02:24:07;;;;;;;1.80;1.70;;;8.50;99.90;;;;;;5075131;28;20035;-51
2023/10/17 02:26:42;;;;;;;2.42;1.70;;;8.50;99.90;;;;;;5057099;28;20101;-54
2023/10/17 02:29:11;;;;;;;4.80;1.60;;;8.50;99.90;;;;;;5075235;28;20032;-54
2023/10/17 02:31:38;;;;;;;6.40;2.58;;;8.50;99.90;;;;;;5074660;28;20477;-54
2023/10/17 02:34:04;;;;;;;6.65;1.83;;;8.50;99.90;;;;;;5075313;28;20500;-54
2023/10/17 02:36:30;;;;;;;5.32;2.33;;;8.50;99.90;;;;;;5075375;28;20032;-54
2023/10/17 02:38:56;;;;;;;4.10;2.25;;;8.50;99.90;;;;;;5074623;28;20025;-54
2023/10/17 02:41:22;;;;;;;4.63;2.05;;;8.50;99.90;;;;;;5072992;28;20064;-53
2023/10/17 02:43:54;;;;;;;5.97;1.83;;;8.60;99.90;;;;;;5075188;28;20502;-53
2023/10/17 02:46:21;;;;;;;2.50;1.80;;;8.60;99.90;;;;;;5074829;28;20031;-53
2023/10/17 02:48:47;;;;;;;6.72;1.70;;;8.60;99.90;;;;;;5075115;28;20027;-54
2023/10/17 02:51:34;;;;;;;7.75;1.58;;;8.60;99.90;;;;;;5074148;28;20094;-54
2023/10/17 02:53:59;;;;;;;5.13;1.88;;;8.60;99.90;;;;;;5074411;28;20032;-53
2023/10/17 02:56:27;;;;;;;4.28;2.05;;;8.60;99.90;;;;;;5074610;28;20027;-52
2023/10/17 03:01:32;;;;;;;2.88;1.50;;;8.60;99.90;;;;;;5074592;28;20032;-54
2023/10/17 03:04:08;;;;;;;2.65;1.52;;;8.60;99.90;;;;;;5074555;28;20103;-54
2023/10/17 03:06:39;;;;;;;8.77;1.90;;;8.60;99.90;;;;;;5074801;28;20443;-54
2023/10/17 03:11:51;;;;;;;10.50;2.15;;;8.60;99.90;;;;;;5068737;28;20029;-53
2023/10/17 03:14:22;;;;;;;4.63;1.58;;;8.60;99.90;;;;;;5074604;28;20431;-54
2023/10/17 03:16:54;;;;;;;3.10;1.88;;;8.60;99.90;;;;;;5073840;28;20078;-54
2023/10/17 03:19:25;;;;;;;3.42;1.70;;;8.60;99.90;;;;;;5074116;28;20075;-54
2023/10/17 03:21:59;;;;;;;6.13;1.92;;;8.60;99.90;;;;;;5074266;28;20021;-55
2023/10/17 03:24:41;;;;;;;2.60;1.65;;;8.60;99.90;;;;;;5074357;28;20100;-54
2023/10/17 03:27:11;;;;;;;4.20;2.08;;;8.60;99.90;;;;;;5073948;28;20431;-55
2023/10/17 03:29:42;;;;;;;3.00;1.75;;;8.60;99.90;;;;;;5074028;28;20489;-54
2023/10/17 03:32:11;;;;;;;1.48;1.13;;;8.50;99.90;;;;;;5073704;28;20025;-53
2023/10/17 03:34:37;;;;;;;1.90;1.70;;;8.60;99.90;;;;;;5074166;28;20130;-54
2023/10/17 03:39:52;;;;;;;2.20;1.23;;;8.50;99.90;;;;;;5071659;28;20052;-54
2023/10/17 03:42:43;;;;;;;3.60;1.80;;;8.50;99.90;;;;;;5081944;28;20115;-54
2023/10/17 03:45:14;;;;;;;2.80;1.75;;;8.50;99.90;;;;;;5093077;28;20030;-54
2023/10/17 03:47:40;;;;;;;4.30;1.77;;;8.50;99.90;;;;;;5073963;28;20111;-54
2023/10/17 03:50:08;;;;;;;6.95;1.80;;;8.50;99.90;;;;;;5073642;28;20021;-54
2023/10/17 03:52:38;;;;;;;1.63;1.48;;;8.50;99.90;;;;;;5073705;28;20385;-54
2023/10/17 03:55:10;;;;;;;5.85;1.80;;;8.50;99.90;;;;;;5073479;28;20035;-54
2023/10/17 03:57:52;;;;;;;3.13;1.70;;;8.50;99.90;;;;;;5073351;28;20024;-55
2023/10/17 04:00:28;;;;;;;2.80;1.20;;;8.50;99.90;;;;;;5073091;28;20028;-51
2023/10/17 04:02:53;;;;;;;3.70;1.50;;;8.50;99.90;;;;;;5072447;28;20025;-54
2023/10/17 04:05:23;;;;;;;1.58;1.38;;;8.50;99.90;;;;;;5073315;28;20154;-45
2023/10/17 04:07:52;;;;;;;2.58;1.77;;;8.50;99.90;;;;;;5073593;28;20385;-54
2023/10/17 04:10:21;;;;;;;3.17;1.50;;;8.50;99.90;;;;;;5062776;28;20048;-53
2023/10/17 04:13:13;;;;;;;6.82;1.45;;;8.60;99.90;;;;;;5072058;28;20123;-52
2023/10/17 04:15:42;;;;;;;2.45;1.90;;;8.60;99.90;;;;;;5072610;28;20029;-54
2023/10/17 04:18:10;;;;;;;3.17;1.63;;;8.60;99.90;;;;;;5073357;28;20031;-54
2023/10/17 04:20:37;;;;;;;1.58;1.25;;;8.50;99.90;;;;;;5073169;28;20381;-57
2023/10/17 04:23:02;;;;;;;2.20;1.70;;;8.50;99.90;;;;;;5073273;28;20424;-54
2023/10/17 04:25:34;;;;;;;2.92;1.90;;;8.60;99.90;;;;;;5072870;28;20024;-54
2023/10/17 04:28:01;;;;;;;1.92;1.75;;;8.60;99.90;;;;;;5089030;28;20038;-52
2023/10/17 04:30:30;;;;;;;10.95;1.60;;;8.60;99.90;;;;;;5075805;28;20020;-54
2023/10/17 04:33:13;;;;;;;7.22;1.85;;;8.70;99.90;;;;;;5072967;28;20028;-54
2023/10/17 04:35:55;;;;;;;1.88;1.52;;;8.60;99.90;;;;;;5072663;28;20040;-54
2023/10/17 04:38:26;;;;;;;2.67;1.52;;;8.60;99.90;;;;;;5053070;28;20442;-54
2023/10/17 04:46:16;;;;;;;3.85;1.85;;;8.60;99.90;;;;;;5062243;28;20090;-55
2023/10/17 04:48:46;;;;;;;5.15;1.67;;;8.60;99.90;;;;;;5072873;28;20487;-54
2023/10/17 04:51:20;;;;;;;2.42;1.63;;;8.60;99.90;;;;;;5072675;28;20039;-54
2023/10/17 04:53:48;;;;;;;3.20;1.70;;;8.50;99.90;;;;;;5072556;28;20476;-55
2023/10/17 04:56:21;;;;;;;2.40;1.65;;;8.50;99.90;;;;;;5072874;28;20078;-54
2023/10/17 05:04:20;;;;;;;4.20;1.85;;;8.40;99.90;;;;;;5070850;28;20086;-54
2023/10/17 06:17:51;;;;;;;4.25;2.10;;;8.20;99.90;;;;;;5075278;28;20394;-53
2023/10/17 06:20:44;;;;;;;3.75;2.10;;;8.20;99.90;;;;;;5075297;28;20027;-54
2023/10/17 06:24:05;;;;;;;3.38;2.08;;;8.10;99.90;;;;;;5075123;28;20077;-54
2023/10/17 06:30:05;;;;;;;8.13;2.13;;;8.10;99.90;;;;;;5075406;28;20154;-54
2023/10/17 06:31:56;;;;;;;7.13;2.20;;;8.10;99.90;;;;;;5074563;28;20029;-54
2023/10/17 06:34:23;;;;;;;8.38;2.83;;;8.10;99.90;;;;;;5075118;28;20035;-55
2023/10/17 06:36:59;;;;;;;7.45;2.95;;;8.10;99.90;;;;;;5072785;28;20028;-53
2023/10/17 06:39:36;;;;;;;3.10;1.98;;;8.10;99.90;;;;;;5068000;28;20029;-54
2023/10/17 06:44:53;;;;;;;9.10;3.20;;;8.10;99.90;;;;;;5074960;28;20041;-53
2023/10/17 06:47:31;;;;;;;10.43;4.25;;;8.00;99.90;;;;;;5074330;28;20520;-51
2023/10/17 06:55:21;;;;;;;4.70;1.85;;;8.10;99.90;;;;;;5074506;28;20112;-52
2023/10/17 06:57:55;;;;;;;5.22;3.13;;;8.10;99.90;;;;;;5073917;28;20404;-55
2023/10/17 07:00:24;;;;;;;7.80;2.58;;;8.20;99.90;;;;;;5073593;28;20070;-52
2023/10/17 07:02:56;;;;;;;4.82;3.40;;;8.20;99.90;;;;;;5074478;28;20017;-54
2023/10/17 07:05:22;;;;;;;6.60;3.60;;;8.30;99.90;;;;;;5056577;28;20397;-51
2023/10/17 07:07:59;;;;;;;7.97;3.45;;;8.30;99.90;;;;;;5074162;28;20025;-53
2023/10/17 07:13:39;;;;;;;8.35;3.28;;;8.40;99.90;;;;;;5074238;28;20039;-54
2023/10/17 07:16:11;;;;;;;6.38;4.20;;;8.50;99.90;;;;;;5064412;28;20037;-54
2023/10/17 07:23:42;;;;;;;11.23;4.53;;;8.70;99.90;;;;;;5071778;28;20052;-42
2023/10/17 07:26:17;;;;;;;8.68;4.13;;;8.80;99.90;;;;;;5072452;28;20504;-44
2023/10/17 07:28:52;;;;;;;16.20;4.85;;;8.80;99.90;;;;;;5071207;28;20125;-43
2023/10/17 07:31:20;;;;;;;15.48;6.22;;;8.90;99.90;;;;;;5074067;28;20409;-45
2023/10/17 07:33:47;;;;;;;19.77;4.93;;;9.00;99.90;;;;;;5073956;28;20079;-41
2023/10/17 07:36:15;;;;;;;6.47;3.27;;;9.00;99.90;;;;;;5073982;28;20508;-45
2023/10/17 07:38:43;;;;;;;10.02;4.68;;;9.00;99.90;;;;;;5072835;28;20317;-44
2023/10/17 07:41:13;;;;;;;12.27;5.90;;;9.00;99.90;;;;;;5071436;28;20127;-42
2023/10/17 07:43:57;;;;;;;9.15;5.10;;;9.20;99.90;;;;;;5071201;28;20071;-42
2023/10/17 07:46:26;;;;;;;14.48;6.13;;;9.20;99.90;;;;;;5072850;28;20103;-45
2023/10/17 07:49:03;;;;;;;11.15;5.60;;;9.30;99.90;;;;;;5072389;28;20033;-45
2023/10/17 07:51:29;;;;;;;14.18;5.15;;;9.40;99.90;;;;;;5072638;28;20031;-47
2023/10/17 07:53:54;;;;;;;9.70;5.30;;;9.40;99.90;;;;;;5071405;28;20082;-43
2023/10/17 07:56:26;;;;;;;10.02;5.25;;;9.50;99.90;;;;;;5073447;28;20469;-43
2023/10/17 07:59:15;;;;;;;11.50;5.25;;;9.60;99.90;;;;;;5071978;28;20063;-42
2023/10/17 08:01:49;;;;;;;9.77;5.45;;;9.60;99.90;;;;;;5072711;28;20028;-41
2023/10/17 08:04:18;;;;;;;13.65;5.72;;;9.70;99.90;;;;;;5072212;28;20024;-44
2023/10/17 08:06:46;;;;;;;13.00;5.95;;;9.70;99.90;;;;;;5072482;28;20169;-38
2023/10/17 08:11:53;;;;;;;15.70;6.00;;;9.80;99.90;;;;;;5073534;28;20090;-41
2023/10/17 08:14:31;;;;;;;10.88;5.43;;;9.90;99.90;;;;;;5073227;28;20491;-43
2023/10/17 08:16:58;;;;;;;10.35;5.13;;;9.90;99.90;;;;;;5073430;28;20029;-40
2023/10/17 08:19:29;;;;;;;9.25;5.03;;;9.90;99.90;;;;;;5073266;28;20020;-46
2023/10/17 08:24:40;;;;;;;10.30;5.28;;;10.00;99.90;;;;;;5073176;28;20051;-44
2023/10/17 08:38:06;;;;;;;8.65;5.22;;;10.40;99.90;;;;;;5040786;28;20040;-41
2023/10/17 08:40:40;;;;;;;8.00;5.07;;;10.50;99.90;;;;;;5072610;28;20083;-43
2023/10/17 08:43:11;;;;;;;10.02;5.15;;;10.60;99.90;;;;;;5054764;28;20017;-46
2023/10/17 08:45:41;;;;;;;8.60;4.90;;;10.60;99.90;;;;;;5072799;28;20027;-39
2023/10/17 08:48:09;;;;;;;9.50;4.72;;;10.70;99.90;;;;;;5072109;28;20024;-45
2023/10/17 08:50:37;;;;;;;13.23;4.88;;;10.80;99.90;;;;;;5052693;28;20094;-40
2023/10/17 08:53:13;;;;;;;9.48;4.75;;;10.80;99.90;;;;;;5052614;28;20017;-44
2023/10/17 08:55:42;;;;;;;13.32;5.32;;;10.90;99.90;;;;;;5052633;28;20048;-40
2023/10/17 08:58:08;;;;;;;8.10;4.80;;;10.90;99.90;;;;;;5065234;28;20052;-41
2023/10/17 09:03:31;;;;;;;13.73;4.30;;;11.10;99.90;;;;;;5072707;28;20040;-43
2023/10/17 09:08:55;;;;;;;8.40;4.43;;;11.10;99.90;;;;;;5072878;28;20036;-41
2023/10/17 09:11:31;;;;;;;3.95;3.10;;;11.20;99.90;;;;;;5072582;28;20477;-43
2023/10/17 09:17:10;;;;;;;7.55;3.58;;;11.40;99.90;;;;;;5072750;28;20035;-43
2023/10/17 09:19:46;;;;;;;2.90;2.28;;;11.50;99.90;;;;;;5072459;28;20162;-43
2023/10/17 09:22:15;;;;;;;3.53;2.47;;;11.50;99.90;;;;;;5072304;28;20431;-42
2023/10/17 09:24:45;;;;;;;2.85;2.55;;;11.60;99.90;;;;;;5072302;28;20082;-42
2023/10/17 09:27:14;;;;;;;5.97;2.95;;;11.70;99.90;;;;;;5072685;28;20150;-44
2023/10/17 09:29:46;;;;;;;7.45;2.55;;;11.90;99.90;;;;;;5072368;28;20489;-43
2023/10/17 09:32:30;;;;;;;9.45;2.15;;;12.00;99.90;;;;;;5072155;28;20067;-43
2023/10/17 09:34:56;;;;;;;3.30;1.90;;;12.10;99.90;;;;;;5072215;28;20025;-44
2023/10/17 09:37:43;;;;;;;2.53;2.03;;;12.10;99.90;;;;;;5072447;28;20107;-47
2023/10/17 09:40:14;;;;;;;4.88;1.77;;;12.10;99.90;;;;;;5072076;28;20041;-48
2023/10/17 09:42:46;;;;;;;4.53;2.72;;;12.10;99.90;;;;;;5072120;28;20462;-45
2023/10/17 09:45:14;;;;;;;3.88;2.35;;;12.10;99.90;;;;;;5072401;28;20477;-48
2023/10/17 09:47:41;;;;;;;;;;;12.10;99.90;;;;;;5072484;28;20021;-46
2023/10/17 09:50:11;;;;;;;7.25;3.05;;;12.30;99.90;;;;;;5072414;28;20273;-40
2023/10/17 09:52:38;;;;;;;6.88;2.90;;;12.40;99.90;;;;;;5072219;28;20085;-41
2023/10/17 09:55:05;;;;;;;5.43;3.13;;;12.50;99.90;;;;;;5072360;28;20377;-45
2023/10/17 09:57:37;;;;;;;7.65;3.33;;;12.50;99.90;;;;;;5072203;28;20477;-41
2023/10/17 10:00:14;;;;;;;4.72;2.97;;;12.70;99.90;;;;;;5074245;28;20497;-44
2023/10/17 10:02:42;;;;;;;5.50;2.85;;;12.70;99.90;;;;;;5074171;28;20061;-40
2023/10/17 10:05:25;;;;;;;3.22;2.38;;;12.80;99.90;;;;;;5073068;28;20497;-44
2023/10/17 10:07:52;;;;;;;4.60;2.83;;;12.80;99.90;;;;;;5070672;28;20044;-49
2023/10/17 10:10:44;;;;;;;9.98;3.42;;;12.80;99.90;;;;;;5075519;28;20047;-44
2023/10/17 10:13:13;;;;;;;5.43;3.33;;;12.70;99.90;;;;;;5075423;28;20379;-42
2023/10/17 10:15:58;;;;;;;7.53;3.17;;;12.80;99.90;;;;;;5075392;28;20528;-44
2023/10/17 10:18:36;;;;;;;11.13;3.60;;;12.80;99.90;;;;;;5075308;28;20107;-44
2023/10/17 10:21:03;;;;;;;7.35;3.55;;;12.80;99.90;;;;;;5075270;28;20020;-39
2023/10/17 10:23:36;;;;;;;8.70;4.45;;;12.80;99.90;;;;;;5075089;28;20026;-45
2023/10/17 10:26:19;;;;;;;5.13;3.00;;;12.90;99.90;;;;;;5075109;28;20025;-44
2023/10/17 10:28:48;;;;;;;6.20;3.30;;;13.00;99.90;;;;;;5074295;28;20034;-42
2023/10/17 10:31:23;;;;;;;6.55;3.10;;;13.10;99.90;;;;;;5053031;28;20028;-48
2023/10/17 10:33:50;;;;;;;3.35;2.50;;;13.00;99.90;;;;;;5074809;28;20021;-45
2023/10/17 10:36:19;;;;;;;4.50;2.78;;;12.90;99.90;;;;;;5047523;28;20028;-57
2023/10/17 10:38:46;;;;;;;3.38;2.55;;;13.00;99.90;;;;;;5070624;28;20117;-43
2023/10/17 10:41:13;;;;;;;7.38;2.88;;;13.10;99.90;;;;;;5066954;28;20044;-41
2023/10/17 10:43:43;;;;;;;6.68;2.80;;;13.10;99.90;;;;;;5072538;28;20107;-41
2023/10/17 10:46:09;;;;;;;12.77;3.20;;;13.10;99.90;;;;;;5074864;28;20089;-43
2023/10/17 10:48:35;;;;;;;3.97;3.03;;;13.10;99.90;;;;;;5073080;28;20099;-42
2023/10/17 10:51:02;;;;;;;6.57;2.58;;;13.10;99.90;;;;;;5073585;28;20100;-46
2023/10/17 10:53:30;;;;;;;5.28;1.98;;;13.20;99.90;;;;;;5074572;28;20373;-42
2023/10/17 10:56:00;;;;;;;5.50;2.50;;;13.30;99.90;;;;;;5074863;28;20620;-44
2023/10/17 10:58:33;;;;;;;9.35;3.13;;;13.30;99.90;;;;;;5074703;28;20404;-43
2023/10/17 11:01:07;;;;;;;5.20;2.47;;;13.40;99.90;;;;;;5074753;28;20400;-40
2023/10/17 11:03:42;;;;;;;3.45;2.28;;;13.60;99.90;;;;;;5074731;28;20504;-47
2023/10/17 11:06:08;;;;;;;4.43;2.28;;;13.70;99.90;;;;;;5074385;28;20492;-46
2023/10/17 11:08:36;;;;;;;5.93;2.17;;;13.70;99.90;;;;;;5074241;28;20024;-44
2023/10/17 11:11:03;;;;;;;3.75;2.17;;;13.60;99.90;;;;;;5073987;28;20029;-43
2023/10/17 11:13:40;;;;;;;2.40;2.10;;;13.60;99.90;;;;;;5074467;28;20109;-42
2023/10/17 11:16:06;;;;;;;6.00;2.97;;;13.60;99.90;;;;;;5074531;28;20623;-43
2023/10/17 11:18:38;;;;;;;4.72;3.33;;;13.60;99.90;;;;;;5074141;28;20021;-46
2023/10/17 11:21:10;;;;;;;3.63;1.98;;;13.50;99.90;;;;;;5069895;28;20385;-42
2023/10/17 11:23:42;;;;;;;5.80;2.70;;;13.50;99.90;;;;;;5067580;28;20536;-47
2023/10/17 11:26:12;;;;;;;4.20;1.92;;;13.60;99.90;;;;;;5074140;28;20020;-42
2023/10/17 11:28:42;;;;;;;4.63;2.10;;;13.70;99.90;;;;;;5068896;28;20107;-43
2023/10/17 11:31:27;;;;;;;2.80;1.77;;;13.90;99.90;;;;;;5065006;28;20024;-43
2023/10/17 11:34:06;;;;;;;3.75;1.92;;;14.10;99.90;;;;;;5072884;28;20103;-45
2023/10/17 11:36:46;;;;;;;3.42;1.70;;;14.20;99.90;;;;;;5068615;28;20377;-42
2023/10/17 11:39:15;;;;;;;3.50;1.95;;;14.20;99.90;;;;;;5065341;28;20718;-43
2023/10/17 11:41:53;;;;;;;6.22;2.42;;;14.10;99.90;;;;;;5067105;28;20033;-47
2023/10/17 11:44:23;;;;;;;3.72;1.70;;;14.10;99.90;;;;;;5064979;28;20021;-44
2023/10/17 11:47:01;;;;;;;5.03;1.60;;;14.10;99.90;;;;;;5065015;28;20056;-41
2023/10/17 11:49:31;;;;;;;4.07;2.63;;;14.10;99.90;;;;;;5066881;28;20543;-43
2023/10/17 11:52:10;;;;;;;3.45;1.60;;;14.10;99.90;;;;;;5064067;28;20028;-43
2023/10/17 11:54:55;;;;;;;3.13;1.50;;;14.20;99.90;;;;;;5064736;28;20028;-44
2023/10/17 11:57:25;;;;;;;1.95;1.75;;;14.10;99.90;;;;;;5066049;28;20025;-43
2023/10/17 11:59:57;;;;;;;4.22;1.30;;;14.20;99.90;;;;;;5063964;28;20485;-42
2023/10/17 12:02:23;;;;;;;8.30;2.08;;;14.30;99.90;;;;;;5065467;28;20058;-47
2023/10/17 12:04:49;;;;;;;7.47;1.48;;;14.50;99.90;;;;;;5066950;28;20034;-43
2023/10/17 12:07:15;;;;;;;3.58;1.13;;;14.60;99.90;;;;;;5065146;28;20025;-42
2023/10/17 12:09:40;;;;;;;2.50;1.30;;;14.70;99.90;;;;;;5071294;28;20106;-47
2023/10/17 12:12:06;;;;;;;5.53;2.03;;;14.60;99.90;;;;;;5070796;28;20056;-44
2023/10/17 12:14:33;;;;;;;4.05;1.63;;;14.60;99.90;;;;;;5071578;28;20040;-46
2023/10/17 12:17:00;;;;;;;1.55;1.25;;;14.60;99.90;;;;;;5071265;28;20032;-44
2023/10/17 12:19:27;;;;;;;3.10;1.70;;;14.50;99.90;;;;;;5071646;28;20427;-46
2023/10/17 12:22:00;;;;;;;1.83;1.40;;;14.60;99.90;;;;;;5072494;28;20028;-43
2023/10/17 12:24:29;;;;;;;1.73;1.30;;;14.60;99.90;;;;;;5069755;28;20028;-43
2023/10/17 12:26:57;;;;;;;3.15;1.15;;;14.60;99.90;;;;;;5072733;28;20119;-44
2023/10/17 12:29:25;;;;;;;5.78;1.20;;;14.70;99.90;;;;;;5070412;28;20063;-45
2023/10/17 12:31:59;;;;;;;7.78;1.60;;;14.60;99.90;;;;;;5072087;28;20058;-47
2023/10/17 12:34:27;;;;;;;3.20;1.35;;;14.60;99.90;;;;;;5073137;28;20038;-46
2023/10/17 12:36:53;;;;;;;3.60;1.23;;;14.70;99.90;;;;;;5037837;28;20021;-43
2023/10/17 12:39:18;;;;;;;5.78;1.73;;;14.80;99.90;;;;;;5064466;28;20107;-41
2023/10/17 12:41:49;;;;;;;2.40;1.05;;;14.90;99.90;;;;;;5064172;28;20477;-42
2023/10/17 12:44:18;;;;;;;7.35;1.58;;;14.90;99.90;;;;;;5065303;28;20159;-43
2023/10/17 12:46:44;;;;;;;1.08;0.98;;;15.00;99.90;;;;;;5064374;28;20025;-46
2023/10/17 12:49:14;;;;;;;5.47;1.52;;;15.00;99.90;;;;;;5064384;28;20027;-42
2023/10/17 12:51:41;;;;;;;6.20;1.13;;;15.00;99.90;;;;;;5066499;28;20453;-41
2023/10/17 12:54:07;;;;;;;2.90;1.58;;;15.00;99.90;;;;;;5064150;28;20385;-43
2023/10/17 12:56:39;;;;;;;3.42;1.10;;;15.00;99.90;;;;;;5064139;28;20029;-40
2023/10/17 12:59:05;;;;;;;4.85;1.50;;;14.90;99.90;;;;;;5063638;28;20028;-42
2023/10/17 13:01:30;;;;;;;4.03;1.05;;;15.00;99.90;;;;;;5064253;28;20025;-45
2023/10/17 13:03:57;;;;;;;2.15;1.05;;;15.10;99.90;;;;;;5045071;28;20070;-44
2023/10/17 13:06:26;;;;;;;1.95;1.10;;;15.20;99.90;;;;;;5031734;28;20024;-40
2023/10/17 13:08:59;;;;;;;4.13;1.00;;;15.30;99.90;;;;;;5045042;28;20376;-44
2023/10/17 13:11:28;;;;;;;5.38;1.25;;;15.30;99.90;;;;;;5063339;28;20423;-44
2023/10/17 13:13:54;;;;;;;3.95;1.48;;;15.20;99.90;;;;;;5063877;28;20114;-42
2023/10/17 13:16:23;;;;;;;2.95;1.20;;;15.20;99.90;;;;;;5033517;28;20025;-45
2023/10/17 13:18:50;;;;;;;1.70;1.20;;;15.10;99.90;;;;;;5062828;28;20768;-44
2023/10/17 13:21:19;;;;;;;1.73;0.90;;;15.00;99.90;;;;;;5065338;28;20021;-43
2023/10/17 13:23:44;;;;;;;3.05;1.20;;;14.90;99.90;;;;;;5064842;28;20110;-47
2023/10/17 13:26:21;;;;;;;5.68;1.45;;;14.90;99.90;;;;;;5068534;28;20116;-47
2023/10/17 13:28:47;;;;;;;2.60;1.10;;;15.00;99.90;;;;;;5072018;28;20033;-44
2023/10/17 13:31:15;;;;;;;1.67;0.95;;;15.10;99.90;;;;;;5065394;28;20043;-44
2023/10/17 13:33:50;;;;;;;4.80;1.27;;;15.20;99.90;;;;;;5049955;28;20031;-45
2023/10/17 13:36:16;;;;;;;4.07;1.52;;;15.20;99.90;;;;;;5076235;28;20060;-49
2023/10/17 13:38:43;;;;;;;4.00;1.30;;;15.10;99.90;;;;;;5071321;28;20125;-43
2023/10/17 13:41:10;;;;;;;2.13;1.40;;;15.00;99.90;;;;;;5075636;28;20084;-42
2023/10/17 13:43:39;;;;;;;4.38;1.30;;;14.80;99.90;;;;;;5076040;28;20273;-43
2023/10/17 13:46:08;;;;;;;3.22;1.10;;;14.70;99.90;;;;;;5075801;28;20488;-42
2023/10/17 13:48:35;;;;;;;1.38;1.10;;;14.60;99.90;;;;;;5075808;28;20561;-40
2023/10/17 13:51:03;;;;;;;4.97;1.45;;;14.50;99.90;;;;;;5042268;28;20025;-46
2023/10/17 13:53:29;;;;;;;2.03;1.88;;;14.50;99.90;;;;;;5068710;28;20016;-42
2023/10/17 13:55:54;;;;;;;2.25;1.02;;;14.60;99.90;;;;;;5072233;28;20016;-42
2023/10/17 13:58:20;;;;;;;1.73;1.25;;;14.60;99.90;;;;;;5075781;28;20485;-49
2023/10/17 14:00:51;;;;;;;4.50;1.50;;;14.70;99.90;;;;;;5075558;28;20443;-48
2023/10/17 14:03:17;;;;;;;1.77;1.48;;;14.80;99.90;;;;;;5075944;28;20029;-42
2023/10/17 14:05:49;;;;;;;1.60;1.50;;;14.80;99.90;;;;;;5075573;28;20115;-46
2023/10/17 14:08:21;;;;;;;2.97;0.88;;;14.80;99.90;;;;;;5075666;28;20035;-42
2023/10/17 14:10:48;;;;;;;2.30;1.00;;;14.80;99.90;;;;;;5075867;28;20451;-47
2023/10/17 14:13:16;;;;;;;1.58;1.10;;;14.70;99.90;;;;;;5075468;28;20054;-47
2023/10/17 14:15:42;;;;;;;4.32;1.33;;;14.70;99.90;;;;;;5075631;28;20037;-50
2023/10/17 14:18:14;;;;;;;1.73;1.00;;;14.70;99.90;;;;;;5075924;28;20546;-43
2023/10/17 14:26:15;;;;;;;2.20;1.17;;;14.70;99.90;;;;;;5075473;28;20031;-42
2023/10/17 14:28:40;;;;;;;2.10;1.10;;;14.80;99.90;;;;;;5075527;28;20035;-43
2023/10/17 14:31:06;;;;;;;3.80;1.30;;;14.90;99.90;;;;;;5075189;28;20107;-44
2023/10/17 14:33:33;;;;;;;1.30;1.17;;;14.80;99.90;;;;;;5071541;28;20050;-45
2023/10/17 14:36:05;;;;;;;7.25;1.33;;;14.80;99.90;;;;;;5074985;28;20032;-43
2023/10/17 14:38:34;;;;;;;2.45;1.30;;;14.60;99.90;;;;;;5067112;28;20509;-43
2023/10/17 14:41:08;;;;;;;4.18;1.40;;;14.60;99.90;;;;;;5065841;28;20074;-41
2023/10/17 14:43:35;;;;;;;1.85;1.20;;;14.70;99.90;;;;;;5066936;28;20028;-48
2023/10/17 14:46:01;;;;;;;6.93;1.98;;;14.60;99.90;;;;;;5065450;28;20051;-46
2023/10/17 14:48:27;;;;;;;2.10;1.50;;;14.70;99.90;;;;;;5065424;28;20036;-46
2023/10/17 14:50:53;;;;;;;4.05;1.13;;;14.70;99.90;;;;;;5065528;28;20081;-41
2023/10/17 14:53:22;;;;;;;1.60;1.40;;;14.70;99.90;;;;;;5068673;28;20024;-45
2023/10/17 14:56:04;;;;;;;1.52;1.05;;;14.60;99.90;;;;;;5065807;28;20033;-42
2023/10/17 14:58:33;;;;;;;1.48;1.38;;;14.60;99.90;;;;;;5066007;28;20028;-46
2023/10/17 15:01:00;;;;;;;2.90;1.10;;;14.50;99.90;;;;;;5065656;28;20028;-40
2023/10/17 15:03:26;;;;;;;6.43;1.10;;;14.30;99.90;;;;;;5067740;28;20037;-46
2023/10/17 15:05:56;;;;;;;1.73;1.20;;;14.20;99.90;;;;;;5066367;28;20439;-45
2023/10/17 15:08:22;;;;;;;2.05;1.02;;;14.10;99.90;;;;;;5049855;28;20112;-43
2023/10/17 15:10:48;;;;;;;4.93;1.48;;;14.10;99.90;;;;;;5048317;28;20049;-42
2023/10/17 15:13:14;;;;;;;7.13;1.88;;;14.20;99.90;;;;;;5065625;28;20028;-46
2023/10/17 15:15:41;;;;;;;2.08;1.20;;;14.20;99.90;;;;;;5066023;28;20561;-43
2023/10/17 15:18:08;;;;;;;1.20;1.10;;;14.10;99.90;;;;;;5066280;28;20024;-44
2023/10/17 15:20:34;;;;;;;6.32;1.33;;;14.00;99.90;;;;;;5066220;28;20043;-43
2023/10/17 15:23:01;;;;;;;7.55;1.13;;;14.00;99.90;;;;;;5064467;28;20021;-47
2023/10/17 15:25:27;;;;;;;4.27;1.00;;;14.00;99.90;;;;;;5066735;28;20111;-41
2023/10/17 15:27:56;;;;;;;4.88;1.13;;;13.90;99.90;;;;;;5066786;28;20021;-43
2023/10/17 15:30:24;;;;;;;5.50;1.63;;;14.00;99.90;;;;;;5070696;28;20024;-48
2023/10/17 15:32:50;;;;;;;3.13;1.00;;;14.00;99.90;;;;;;5065040;28;20043;-54